sensor_id;sensor_type;location;lat;lon;timestamp;P1;durP1;ratioP1;P2;durP2;ratioP2
43337;SDS011;28933;52.492;13.434;2022-10-16T00:01:59;4.13;;;2.75;;
43337;SDS011;28933;52.492;13.434;2022-10-16T00:04:25;3.20;;;2.50;;
43337;SDS011;28933;52.492;13.434;2022-10-16T00:06:50;3.92;;;2.85;;
43337;SDS011;28933;52.492;13.434;2022-10-16T00:09:16;3.90;;;2.95;;
43337;SDS011;28933;52.492;13.434;2022-10-16T00:11:41;4.88;;;2.80;;
43337;SDS011;28933;52.492;13.434;2022-10-16T00:14:08;5.03;;;3.20;;
43337;SDS011;28933;52.492;13.434;2022-10-16T00:16:36;3.80;;;2.80;;
43337;SDS011;28933;52.492;13.434;2022-10-16T00:19:02;4.57;;;2.42;;
43337;SDS011;28933;52.492;13.434;2022-10-16T00:21:29;3.55;;;2.50;;
43337;SDS011;28933;52.492;13.434;2022-10-16T00:24:06;4.82;;;2.60;;
43337;SDS011;28933;52.492;13.434;2022-10-16T00:26:36;3.80;;;2.60;;
43337;SDS011;28933;52.492;13.434;2022-10-16T00:29:03;3.35;;;2.33;;
43337;SDS011;28933;52.492;13.434;2022-10-16T00:31:29;3.30;;;2.45;;
43337;SDS011;28933;52.492;13.434;2022-10-16T00:33:55;4.25;;;2.50;;
43337;SDS011;28933;52.492;13.434;2022-10-16T00:36:22;3.10;;;2.58;;
43337;SDS011;28933;52.492;13.434;2022-10-16T00:38:52;3.65;;;2.90;;
43337;SDS011;28933;52.492;13.434;2022-10-16T00:41:19;5.22;;;2.60;;
43337;SDS011;28933;52.492;13.434;2022-10-16T00:43:50;3.70;;;2.50;;
43337;SDS011;28933;52.492;13.434;2022-10-16T00:46:29;3.53;;;2.40;;
43337;SDS011;28933;52.492;13.434;2022-10-16T00:51:34;3.97;;;2.72;;
43337;SDS011;28933;52.492;13.434;2022-10-16T00:54:26;5.60;;;3.03;;
43337;SDS011;28933;52.492;13.434;2022-10-16T00:56:53;3.13;;;2.25;;
43337;SDS011;28933;52.492;13.434;2022-10-16T00:59:22;2.63;;;2.03;;
43337;SDS011;28933;52.492;13.434;2022-10-16T01:01:51;3.47;;;2.25;;
43337;SDS011;28933;52.492;13.434;2022-10-16T01:04:18;3.60;;;2.10;;
43337;SDS011;28933;52.492;13.434;2022-10-16T01:06:51;3.10;;;2.55;;
43337;SDS011;28933;52.492;13.434;2022-10-16T01:09:37;2.63;;;2.10;;
43337;SDS011;28933;52.492;13.434;2022-10-16T01:12:33;3.00;;;1.92;;
43337;SDS011;28933;52.492;13.434;2022-10-16T01:15:17;2.97;;;2.17;;
43337;SDS011;28933;52.492;13.434;2022-10-16T01:23:21;3.20;;;2.00;;
43337;SDS011;28933;52.492;13.434;2022-10-16T01:31:23;3.40;;;2.78;;
43337;SDS011;28933;52.492;13.434;2022-10-16T01:33:56;5.70;;;2.25;;
43337;SDS011;28933;52.492;13.434;2022-10-16T01:36:29;2.33;;;1.88;;
43337;SDS011;28933;52.492;13.434;2022-10-16T01:39:02;2.60;;;2.15;;
43337;SDS011;28933;52.492;13.434;2022-10-16T01:41:42;2.90;;;2.20;;
43337;SDS011;28933;52.492;13.434;2022-10-16T01:44:19;2.50;;;1.77;;
43337;SDS011;28933;52.492;13.434;2022-10-16T01:46:48;4.13;;;2.08;;
43337;SDS011;28933;52.492;13.434;2022-10-16T01:49:17;3.22;;;1.90;;
43337;SDS011;28933;52.492;13.434;2022-10-16T01:51:45;3.20;;;2.17;;
43337;SDS011;28933;52.492;13.434;2022-10-16T01:54:14;2.38;;;1.70;;
43337;SDS011;28933;52.492;13.434;2022-10-16T01:56:42;9.02;;;2.17;;
43337;SDS011;28933;52.492;13.434;2022-10-16T01:59:15;2.63;;;1.83;;
43337;SDS011;28933;52.492;13.434;2022-10-16T02:01:46;3.58;;;1.77;;
43337;SDS011;28933;52.492;13.434;2022-10-16T02:04:19;2.90;;;1.98;;
43337;SDS011;28933;52.492;13.434;2022-10-16T02:06:49;3.37;;;1.80;;
43337;SDS011;28933;52.492;13.434;2022-10-16T02:09:16;3.35;;;1.73;;
43337;SDS011;28933;52.492;13.434;2022-10-16T02:11:42;2.42;;;1.92;;
43337;SDS011;28933;52.492;13.434;2022-10-16T02:14:09;3.03;;;2.20;;
43337;SDS011;28933;52.492;13.434;2022-10-16T02:16:36;2.30;;;1.70;;
43337;SDS011;28933;52.492;13.434;2022-10-16T02:19:09;2.25;;;1.70;;
43337;SDS011;28933;52.492;13.434;2022-10-16T02:21:53;5.18;;;2.58;;
43337;SDS011;28933;52.492;13.434;2022-10-16T02:24:26;4.90;;;1.98;;
43337;SDS011;28933;52.492;13.434;2022-10-16T02:29:36;3.55;;;2.10;;
43337;SDS011;28933;52.492;13.434;2022-10-16T02:32:05;3.75;;;2.40;;
43337;SDS011;28933;52.492;13.434;2022-10-16T02:34:33;5.47;;;2.30;;
43337;SDS011;28933;52.492;13.434;2022-10-16T02:37:02;3.22;;;2.15;;
43337;SDS011;28933;52.492;13.434;2022-10-16T02:39:31;2.80;;;2.05;;
43337;SDS011;28933;52.492;13.434;2022-10-16T02:41:58;5.25;;;2.17;;
43337;SDS011;28933;52.492;13.434;2022-10-16T02:44:24;2.40;;;1.73;;
43337;SDS011;28933;52.492;13.434;2022-10-16T02:46:50;3.42;;;2.03;;
43337;SDS011;28933;52.492;13.434;2022-10-16T02:49:15;2.15;;;1.65;;
43337;SDS011;28933;52.492;13.434;2022-10-16T02:51:41;3.25;;;1.60;;
43337;SDS011;28933;52.492;13.434;2022-10-16T02:54:06;2.67;;;2.05;;
43337;SDS011;28933;52.492;13.434;2022-10-16T02:56:32;2.50;;;1.83;;
43337;SDS011;28933;52.492;13.434;2022-10-16T02:58:58;2.50;;;1.70;;
43337;SDS011;28933;52.492;13.434;2022-10-16T03:01:24;3.33;;;1.80;;
43337;SDS011;28933;52.492;13.434;2022-10-16T03:03:49;1.90;;;1.58;;
43337;SDS011;28933;52.492;13.434;2022-10-16T03:06:15;1.70;;;1.42;;
43337;SDS011;28933;52.492;13.434;2022-10-16T03:08:41;2.60;;;1.77;;
43337;SDS011;28933;52.492;13.434;2022-10-16T03:11:06;2.20;;;1.58;;
43337;SDS011;28933;52.492;13.434;2022-10-16T03:13:32;2.53;;;1.77;;
43337;SDS011;28933;52.492;13.434;2022-10-16T03:15:58;2.60;;;1.73;;
43337;SDS011;28933;52.492;13.434;2022-10-16T03:18:24;2.53;;;1.92;;
43337;SDS011;28933;52.492;13.434;2022-10-16T03:20:50;1.98;;;1.77;;
43337;SDS011;28933;52.492;13.434;2022-10-16T03:23:17;2.53;;;1.83;;
43337;SDS011;28933;52.492;13.434;2022-10-16T03:25:43;2.95;;;1.65;;
43337;SDS011;28933;52.492;13.434;2022-10-16T03:28:08;3.00;;;1.80;;
43337;SDS011;28933;52.492;13.434;2022-10-16T03:30:35;2.25;;;1.63;;
43337;SDS011;28933;52.492;13.434;2022-10-16T03:33:00;2.20;;;1.60;;
43337;SDS011;28933;52.492;13.434;2022-10-16T03:35:27;2.05;;;1.55;;
43337;SDS011;28933;52.492;13.434;2022-10-16T03:37:52;2.28;;;1.70;;
43337;SDS011;28933;52.492;13.434;2022-10-16T03:40:18;3.13;;;1.75;;
43337;SDS011;28933;52.492;13.434;2022-10-16T03:42:44;1.90;;;1.60;;
43337;SDS011;28933;52.492;13.434;2022-10-16T03:45:10;2.53;;;1.60;;
43337;SDS011;28933;52.492;13.434;2022-10-16T03:47:36;3.22;;;1.90;;
43337;SDS011;28933;52.492;13.434;2022-10-16T03:50:02;2.45;;;1.60;;
43337;SDS011;28933;52.492;13.434;2022-10-16T03:52:29;6.05;;;2.10;;
43337;SDS011;28933;52.492;13.434;2022-10-16T03:54:55;2.03;;;1.50;;
43337;SDS011;28933;52.492;13.434;2022-10-16T03:57:20;2.80;;;1.70;;
43337;SDS011;28933;52.492;13.434;2022-10-16T03:59:46;3.33;;;1.70;;
43337;SDS011;28933;52.492;13.434;2022-10-16T04:02:12;3.03;;;2.00;;
43337;SDS011;28933;52.492;13.434;2022-10-16T04:04:38;2.63;;;1.83;;
43337;SDS011;28933;52.492;13.434;2022-10-16T04:07:03;2.00;;;1.63;;
43337;SDS011;28933;52.492;13.434;2022-10-16T04:09:29;2.42;;;1.98;;
43337;SDS011;28933;52.492;13.434;2022-10-16T04:11:55;2.53;;;1.70;;
43337;SDS011;28933;52.492;13.434;2022-10-16T04:14:21;2.90;;;1.98;;
43337;SDS011;28933;52.492;13.434;2022-10-16T04:16:46;2.30;;;1.77;;
43337;SDS011;28933;52.492;13.434;2022-10-16T04:19:12;2.53;;;1.50;;
43337;SDS011;28933;52.492;13.434;2022-10-16T04:21:39;2.90;;;1.70;;
43337;SDS011;28933;52.492;13.434;2022-10-16T04:24:05;3.10;;;1.80;;
43337;SDS011;28933;52.492;13.434;2022-10-16T04:26:30;2.40;;;1.80;;
43337;SDS011;28933;52.492;13.434;2022-10-16T04:28:56;2.50;;;1.80;;
43337;SDS011;28933;52.492;13.434;2022-10-16T04:31:21;2.30;;;1.88;;
43337;SDS011;28933;52.492;13.434;2022-10-16T04:33:48;2.20;;;1.70;;
43337;SDS011;28933;52.492;13.434;2022-10-16T04:36:14;2.00;;;1.52;;
43337;SDS011;28933;52.492;13.434;2022-10-16T04:38:39;2.15;;;1.80;;
43337;SDS011;28933;52.492;13.434;2022-10-16T04:41:05;2.17;;;1.73;;
43337;SDS011;28933;52.492;13.434;2022-10-16T04:43:32;2.90;;;1.80;;
43337;SDS011;28933;52.492;13.434;2022-10-16T04:45:58;2.60;;;1.75;;
43337;SDS011;28933;52.492;13.434;2022-10-16T04:48:24;2.05;;;1.70;;
43337;SDS011;28933;52.492;13.434;2022-10-16T04:50:50;3.35;;;2.08;;
43337;SDS011;28933;52.492;13.434;2022-10-16T04:53:15;2.42;;;1.90;;
43337;SDS011;28933;52.492;13.434;2022-10-16T04:55:41;2.25;;;1.85;;
43337;SDS011;28933;52.492;13.434;2022-10-16T04:58:07;2.58;;;2.00;;
43337;SDS011;28933;52.492;13.434;2022-10-16T05:00:33;3.08;;;2.05;;
43337;SDS011;28933;52.492;13.434;2022-10-16T05:02:59;3.50;;;1.92;;
43337;SDS011;28933;52.492;13.434;2022-10-16T05:05:26;2.92;;;2.15;;
43337;SDS011;28933;52.492;13.434;2022-10-16T05:07:52;2.58;;;2.05;;
43337;SDS011;28933;52.492;13.434;2022-10-16T05:10:18;2.90;;;2.30;;
43337;SDS011;28933;52.492;13.434;2022-10-16T05:12:44;3.08;;;2.05;;
43337;SDS011;28933;52.492;13.434;2022-10-16T05:15:10;2.70;;;2.28;;
43337;SDS011;28933;52.492;13.434;2022-10-16T05:17:36;3.97;;;2.60;;
43337;SDS011;28933;52.492;13.434;2022-10-16T05:20:01;2.95;;;2.25;;
43337;SDS011;28933;52.492;13.434;2022-10-16T05:22:28;5.72;;;2.10;;
43337;SDS011;28933;52.492;13.434;2022-10-16T05:24:53;2.63;;;2.05;;
43337;SDS011;28933;52.492;13.434;2022-10-16T05:27:19;2.90;;;2.15;;
43337;SDS011;28933;52.492;13.434;2022-10-16T05:29:45;3.65;;;2.35;;
43337;SDS011;28933;52.492;13.434;2022-10-16T05:32:12;3.97;;;2.53;;
43337;SDS011;28933;52.492;13.434;2022-10-16T05:34:42;4.07;;;2.42;;
43337;SDS011;28933;52.492;13.434;2022-10-16T05:37:07;2.60;;;2.25;;
43337;SDS011;28933;52.492;13.434;2022-10-16T05:39:33;3.33;;;2.53;;
43337;SDS011;28933;52.492;13.434;2022-10-16T05:42:00;3.85;;;2.63;;
43337;SDS011;28933;52.492;13.434;2022-10-16T05:44:26;2.80;;;2.17;;
43337;SDS011;28933;52.492;13.434;2022-10-16T05:46:51;4.10;;;2.30;;
43337;SDS011;28933;52.492;13.434;2022-10-16T05:49:17;2.60;;;2.33;;
43337;SDS011;28933;52.492;13.434;2022-10-16T05:51:43;2.92;;;2.50;;
43337;SDS011;28933;52.492;13.434;2022-10-16T05:54:08;3.28;;;2.38;;
43337;SDS011;28933;52.492;13.434;2022-10-16T05:56:34;3.40;;;2.20;;
43337;SDS011;28933;52.492;13.434;2022-10-16T05:58:59;3.55;;;2.33;;
43337;SDS011;28933;52.492;13.434;2022-10-16T06:01:25;3.28;;;2.70;;
43337;SDS011;28933;52.492;13.434;2022-10-16T06:03:51;3.58;;;2.33;;
43337;SDS011;28933;52.492;13.434;2022-10-16T06:06:19;2.72;;;2.35;;
43337;SDS011;28933;52.492;13.434;2022-10-16T06:08:46;3.42;;;2.20;;
43337;SDS011;28933;52.492;13.434;2022-10-16T06:11:15;3.88;;;2.05;;
43337;SDS011;28933;52.492;13.434;2022-10-16T06:13:42;3.65;;;2.80;;
43337;SDS011;28933;52.492;13.434;2022-10-16T06:16:10;3.60;;;2.60;;
43337;SDS011;28933;52.492;13.434;2022-10-16T06:18:37;3.75;;;2.08;;
43337;SDS011;28933;52.492;13.434;2022-10-16T06:21:07;3.08;;;2.25;;
43337;SDS011;28933;52.492;13.434;2022-10-16T06:23:34;3.55;;;2.50;;
43337;SDS011;28933;52.492;13.434;2022-10-16T06:26:10;3.17;;;2.45;;
43337;SDS011;28933;52.492;13.434;2022-10-16T06:28:38;3.03;;;2.28;;
43337;SDS011;28933;52.492;13.434;2022-10-16T06:31:04;3.35;;;2.50;;
43337;SDS011;28933;52.492;13.434;2022-10-16T06:33:31;3.38;;;2.25;;
43337;SDS011;28933;52.492;13.434;2022-10-16T06:36:04;4.25;;;2.28;;
43337;SDS011;28933;52.492;13.434;2022-10-16T06:38:35;3.58;;;2.50;;
43337;SDS011;28933;52.492;13.434;2022-10-16T06:41:00;2.55;;;2.20;;
43337;SDS011;28933;52.492;13.434;2022-10-16T06:43:28;3.90;;;2.00;;
43337;SDS011;28933;52.492;13.434;2022-10-16T06:45:57;4.40;;;1.90;;
43337;SDS011;28933;52.492;13.434;2022-10-16T06:48:24;3.58;;;2.38;;
43337;SDS011;28933;52.492;13.434;2022-10-16T06:50:57;2.55;;;2.00;;
43337;SDS011;28933;52.492;13.434;2022-10-16T06:53:28;3.40;;;2.30;;
43337;SDS011;28933;52.492;13.434;2022-10-16T06:55:56;13.77;;;2.97;;
43337;SDS011;28933;52.492;13.434;2022-10-16T06:58:22;3.03;;;2.20;;
43337;SDS011;28933;52.492;13.434;2022-10-16T07:00:48;3.38;;;2.80;;
43337;SDS011;28933;52.492;13.434;2022-10-16T07:03:14;2.63;;;2.30;;
43337;SDS011;28933;52.492;13.434;2022-10-16T07:05:40;2.90;;;2.22;;
43337;SDS011;28933;52.492;13.434;2022-10-16T07:08:07;3.30;;;2.17;;
43337;SDS011;28933;52.492;13.434;2022-10-16T07:10:34;3.45;;;2.20;;
43337;SDS011;28933;52.492;13.434;2022-10-16T07:13:00;2.63;;;1.75;;
43337;SDS011;28933;52.492;13.434;2022-10-16T07:15:26;3.47;;;2.10;;
43337;SDS011;28933;52.492;13.434;2022-10-16T07:17:52;3.00;;;2.30;;
43337;SDS011;28933;52.492;13.434;2022-10-16T07:20:18;3.50;;;2.38;;
43337;SDS011;28933;52.492;13.434;2022-10-16T07:22:44;3.78;;;2.20;;
43337;SDS011;28933;52.492;13.434;2022-10-16T07:25:09;3.15;;;2.25;;
43337;SDS011;28933;52.492;13.434;2022-10-16T07:27:36;2.78;;;2.03;;
43337;SDS011;28933;52.492;13.434;2022-10-16T07:30:03;4.93;;;2.28;;
43337;SDS011;28933;52.492;13.434;2022-10-16T07:32:30;3.58;;;1.80;;
43337;SDS011;28933;52.492;13.434;2022-10-16T07:34:56;4.00;;;2.15;;
43337;SDS011;28933;52.492;13.434;2022-10-16T07:37:22;2.53;;;1.77;;
43337;SDS011;28933;52.492;13.434;2022-10-16T07:39:47;2.63;;;1.85;;
43337;SDS011;28933;52.492;13.434;2022-10-16T07:42:13;2.17;;;1.60;;
43337;SDS011;28933;52.492;13.434;2022-10-16T07:44:39;2.53;;;1.98;;
43337;SDS011;28933;52.492;13.434;2022-10-16T07:47:06;3.92;;;1.95;;
43337;SDS011;28933;52.492;13.434;2022-10-16T07:49:32;3.13;;;1.80;;
43337;SDS011;28933;52.492;13.434;2022-10-16T07:51:57;2.63;;;1.70;;
43337;SDS011;28933;52.492;13.434;2022-10-16T07:54:23;5.78;;;2.42;;
43337;SDS011;28933;52.492;13.434;2022-10-16T07:56:48;2.25;;;1.50;;
43337;SDS011;28933;52.492;13.434;2022-10-16T07:59:14;2.65;;;2.00;;
43337;SDS011;28933;52.492;13.434;2022-10-16T08:01:39;2.20;;;1.67;;
43337;SDS011;28933;52.492;13.434;2022-10-16T08:04:07;1.77;;;1.45;;
43337;SDS011;28933;52.492;13.434;2022-10-16T08:06:35;2.50;;;1.58;;
43337;SDS011;28933;52.492;13.434;2022-10-16T08:09:01;4.57;;;2.38;;
43337;SDS011;28933;52.492;13.434;2022-10-16T08:11:27;3.08;;;1.90;;
43337;SDS011;28933;52.492;13.434;2022-10-16T08:13:54;3.20;;;1.80;;
43337;SDS011;28933;52.492;13.434;2022-10-16T08:16:20;3.13;;;1.90;;
43337;SDS011;28933;52.492;13.434;2022-10-16T08:18:46;3.63;;;1.92;;
43337;SDS011;28933;52.492;13.434;2022-10-16T08:21:15;3.78;;;1.95;;
43337;SDS011;28933;52.492;13.434;2022-10-16T08:23:44;2.33;;;1.60;;
43337;SDS011;28933;52.492;13.434;2022-10-16T08:26:10;2.47;;;1.80;;
43337;SDS011;28933;52.492;13.434;2022-10-16T08:28:36;2.42;;;1.58;;
43337;SDS011;28933;52.492;13.434;2022-10-16T08:31:07;4.30;;;1.88;;
43337;SDS011;28933;52.492;13.434;2022-10-16T08:33:34;3.42;;;1.73;;
43337;SDS011;28933;52.492;13.434;2022-10-16T08:36:00;3.83;;;1.85;;
43337;SDS011;28933;52.492;13.434;2022-10-16T08:38:27;2.92;;;2.13;;
43337;SDS011;28933;52.492;13.434;2022-10-16T08:40:52;2.88;;;1.50;;
43337;SDS011;28933;52.492;13.434;2022-10-16T08:46:47;2.92;;;1.73;;
43337;SDS011;28933;52.492;13.434;2022-10-16T08:49:35;3.45;;;1.45;;
43337;SDS011;28933;52.492;13.434;2022-10-16T08:52:02;11.77;;;2.05;;
43337;SDS011;28933;52.492;13.434;2022-10-16T08:54:29;3.17;;;1.80;;
43337;SDS011;28933;52.492;13.434;2022-10-16T08:57:14;6.60;;;2.33;;
43337;SDS011;28933;52.492;13.434;2022-10-16T08:59:45;5.40;;;1.70;;
43337;SDS011;28933;52.492;13.434;2022-10-16T09:07:46;2.80;;;1.50;;
43337;SDS011;28933;52.492;13.434;2022-10-16T09:16:24;2.53;;;1.98;;
43337;SDS011;28933;52.492;13.434;2022-10-16T09:21:35;4.43;;;1.80;;
43337;SDS011;28933;52.492;13.434;2022-10-16T09:24:13;3.20;;;1.95;;
43337;SDS011;28933;52.492;13.434;2022-10-16T09:26:41;4.10;;;1.98;;
43337;SDS011;28933;52.492;13.434;2022-10-16T09:29:08;3.03;;;1.77;;
43337;SDS011;28933;52.492;13.434;2022-10-16T09:36:57;8.13;;;2.17;;
43337;SDS011;28933;52.492;13.434;2022-10-16T09:39:23;3.97;;;1.63;;
43337;SDS011;28933;52.492;13.434;2022-10-16T09:41:49;1.75;;;1.40;;
43337;SDS011;28933;52.492;13.434;2022-10-16T09:44:29;2.85;;;1.48;;
43337;SDS011;28933;52.492;13.434;2022-10-16T09:47:03;2.20;;;1.50;;
43337;SDS011;28933;52.492;13.434;2022-10-16T09:49:30;2.03;;;1.42;;
43337;SDS011;28933;52.492;13.434;2022-10-16T09:52:09;3.65;;;1.40;;
43337;SDS011;28933;52.492;13.434;2022-10-16T09:54:37;2.60;;;1.58;;
43337;SDS011;28933;52.492;13.434;2022-10-16T09:57:18;2.22;;;1.55;;
43337;SDS011;28933;52.492;13.434;2022-10-16T09:59:54;1.48;;;1.30;;
43337;SDS011;28933;52.492;13.434;2022-10-16T10:02:29;6.20;;;1.48;;
43337;SDS011;28933;52.492;13.434;2022-10-16T10:04:58;3.40;;;1.58;;
43337;SDS011;28933;52.492;13.434;2022-10-16T10:07:28;3.40;;;1.50;;
43337;SDS011;28933;52.492;13.434;2022-10-16T10:09:59;3.63;;;1.60;;
43337;SDS011;28933;52.492;13.434;2022-10-16T10:12:29;3.22;;;1.77;;
43337;SDS011;28933;52.492;13.434;2022-10-16T10:17:32;3.25;;;1.50;;
43337;SDS011;28933;52.492;13.434;2022-10-16T10:20:40;3.33;;;2.13;;
43337;SDS011;28933;52.492;13.434;2022-10-16T10:22:49;7.32;;;2.30;;
43337;SDS011;28933;52.492;13.434;2022-10-16T10:28:23;3.15;;;1.75;;
43337;SDS011;28933;52.492;13.434;2022-10-16T10:37:03;4.07;;;1.80;;
43337;SDS011;28933;52.492;13.434;2022-10-16T10:40:03;4.35;;;2.30;;
43337;SDS011;28933;52.492;13.434;2022-10-16T10:42:35;2.90;;;1.63;;
43337;SDS011;28933;52.492;13.434;2022-10-16T10:45:11;2.80;;;1.60;;
43337;SDS011;28933;52.492;13.434;2022-10-16T10:50:39;2.10;;;1.40;;
43337;SDS011;28933;52.492;13.434;2022-10-16T10:53:18;1.80;;;1.38;;
43337;SDS011;28933;52.492;13.434;2022-10-16T11:01:17;2.95;;;1.52;;
43337;SDS011;28933;52.492;13.434;2022-10-16T11:06:36;3.17;;;1.40;;
43337;SDS011;28933;52.492;13.434;2022-10-16T11:12:00;2.10;;;1.40;;
43337;SDS011;28933;52.492;13.434;2022-10-16T11:16:59;4.63;;;1.80;;
43337;SDS011;28933;52.492;13.434;2022-10-16T11:19:34;3.65;;;1.65;;
43337;SDS011;28933;52.492;13.434;2022-10-16T11:27:41;5.28;;;2.30;;
43337;SDS011;28933;52.492;13.434;2022-10-16T11:31:00;4.25;;;1.60;;
43337;SDS011;28933;52.492;13.434;2022-10-16T11:36:11;4.55;;;1.90;;
43337;SDS011;28933;52.492;13.434;2022-10-16T11:38:52;2.67;;;1.57;;
43337;SDS011;28933;52.492;13.434;2022-10-16T11:44:33;2.97;;;1.30;;
43337;SDS011;28933;52.492;13.434;2022-10-16T11:57:49;1.88;;;1.20;;
43337;SDS011;28933;52.492;13.434;2022-10-16T12:00:28;2.45;;;1.42;;
43337;SDS011;28933;52.492;13.434;2022-10-16T12:03:20;3.65;;;1.73;;
43337;SDS011;28933;52.492;13.434;2022-10-16T12:08:49;1.88;;;1.42;;
43337;SDS011;28933;52.492;13.434;2022-10-16T12:13:51;2.63;;;1.30;;
43337;SDS011;28933;52.492;13.434;2022-10-16T12:16:28;1.73;;;1.20;;
43337;SDS011;28933;52.492;13.434;2022-10-16T12:21:38;1.45;;;1.08;;
43337;SDS011;28933;52.492;13.434;2022-10-16T12:24:04;1.77;;;1.13;;
43337;SDS011;28933;52.492;13.434;2022-10-16T12:26:39;2.20;;;1.20;;
43337;SDS011;28933;52.492;13.434;2022-10-16T12:31:59;1.05;;;0.95;;
43337;SDS011;28933;52.492;13.434;2022-10-16T12:36:54;1.75;;;1.10;;
43337;SDS011;28933;52.492;13.434;2022-10-16T12:39:32;2.20;;;0.98;;
43337;SDS011;28933;52.492;13.434;2022-10-16T12:42:03;1.85;;;1.10;;
43337;SDS011;28933;52.492;13.434;2022-10-16T12:44:34;2.67;;;1.38;;
43337;SDS011;28933;52.492;13.434;2022-10-16T12:47:02;2.40;;;1.00;;
43337;SDS011;28933;52.492;13.434;2022-10-16T12:51:54;3.13;;;1.20;;
43337;SDS011;28933;52.492;13.434;2022-10-16T12:54:30;1.73;;;1.27;;
43337;SDS011;28933;52.492;13.434;2022-10-16T13:11:05;1.63;;;1.27;;
43337;SDS011;28933;52.492;13.434;2022-10-16T13:13:53;1.25;;;1.00;;
43337;SDS011;28933;52.492;13.434;2022-10-16T13:16:48;2.00;;;1.30;;
43337;SDS011;28933;52.492;13.434;2022-10-16T13:24:53;2.00;;;1.27;;
43337;SDS011;28933;52.492;13.434;2022-10-16T13:30:11;6.40;;;3.25;;
43337;SDS011;28933;52.492;13.434;2022-10-16T13:32:40;7.10;;;3.95;;
43337;SDS011;28933;52.492;13.434;2022-10-16T13:35:28;3.03;;;2.03;;
43337;SDS011;28933;52.492;13.434;2022-10-16T13:38:08;3.28;;;1.90;;
43337;SDS011;28933;52.492;13.434;2022-10-16T13:40:36;2.00;;;1.30;;
43337;SDS011;28933;52.492;13.434;2022-10-16T13:43:12;4.43;;;1.67;;
43337;SDS011;28933;52.492;13.434;2022-10-16T13:45:38;5.03;;;1.60;;
43337;SDS011;28933;52.492;13.434;2022-10-16T13:48:04;4.28;;;1.58;;
43337;SDS011;28933;52.492;13.434;2022-10-16T13:50:34;4.10;;;1.42;;
43337;SDS011;28933;52.492;13.434;2022-10-16T13:53:06;3.33;;;1.50;;
43337;SDS011;28933;52.492;13.434;2022-10-16T13:55:37;4.35;;;1.65;;
43337;SDS011;28933;52.492;13.434;2022-10-16T13:58:12;2.95;;;1.90;;
43337;SDS011;28933;52.492;13.434;2022-10-16T14:01:03;4.82;;;1.90;;
43337;SDS011;28933;52.492;13.434;2022-10-16T14:03:33;3.08;;;1.70;;
43337;SDS011;28933;52.492;13.434;2022-10-16T14:06:01;6.00;;;2.20;;
43337;SDS011;28933;52.492;13.434;2022-10-16T14:08:29;3.08;;;2.00;;
43337;SDS011;28933;52.492;13.434;2022-10-16T14:10:57;4.30;;;1.80;;
43337;SDS011;28933;52.492;13.434;2022-10-16T14:13:30;3.25;;;1.83;;
43337;SDS011;28933;52.492;13.434;2022-10-16T14:15:59;2.70;;;1.33;;
43337;SDS011;28933;52.492;13.434;2022-10-16T14:18:31;1.90;;;1.40;;
43337;SDS011;28933;52.492;13.434;2022-10-16T14:21:02;3.88;;;1.70;;
43337;SDS011;28933;52.492;13.434;2022-10-16T14:23:31;2.83;;;1.17;;
43337;SDS011;28933;52.492;13.434;2022-10-16T14:28:35;6.20;;;1.98;;
43337;SDS011;28933;52.492;13.434;2022-10-16T14:31:13;1.83;;;1.35;;
43337;SDS011;28933;52.492;13.434;2022-10-16T14:33:56;3.15;;;1.75;;
43337;SDS011;28933;52.492;13.434;2022-10-16T14:36:22;2.08;;;1.60;;
43337;SDS011;28933;52.492;13.434;2022-10-16T14:39:05;4.85;;;2.00;;
43337;SDS011;28933;52.492;13.434;2022-10-16T14:41:43;2.42;;;1.70;;
43337;SDS011;28933;52.492;13.434;2022-10-16T14:44:12;3.70;;;1.40;;
43337;SDS011;28933;52.492;13.434;2022-10-16T14:46:39;3.75;;;1.40;;
43337;SDS011;28933;52.492;13.434;2022-10-16T14:51:35;1.75;;;1.30;;
43337;SDS011;28933;52.492;13.434;2022-10-16T14:54:02;4.70;;;1.67;;
43337;SDS011;28933;52.492;13.434;2022-10-16T14:57:12;3.55;;;1.40;;
43337;SDS011;28933;52.492;13.434;2022-10-16T14:59:24;6.75;;;2.50;;
43337;SDS011;28933;52.492;13.434;2022-10-16T15:04:22;3.80;;;1.50;;
43337;SDS011;28933;52.492;13.434;2022-10-16T15:06:47;4.03;;;2.05;;
43337;SDS011;28933;52.492;13.434;2022-10-16T15:09:13;3.88;;;1.45;;
43337;SDS011;28933;52.492;13.434;2022-10-16T15:11:39;2.85;;;1.60;;
43337;SDS011;28933;52.492;13.434;2022-10-16T15:14:05;4.45;;;2.03;;
43337;SDS011;28933;52.492;13.434;2022-10-16T15:16:31;3.42;;;1.65;;
43337;SDS011;28933;52.492;13.434;2022-10-16T15:18:57;4.47;;;1.90;;
43337;SDS011;28933;52.492;13.434;2022-10-16T15:21:27;4.10;;;2.42;;
43337;SDS011;28933;52.492;13.434;2022-10-16T15:23:55;6.28;;;1.88;;
43337;SDS011;28933;52.492;13.434;2022-10-16T15:26:21;4.07;;;2.47;;
43337;SDS011;28933;52.492;13.434;2022-10-16T15:28:48;3.38;;;1.75;;
43337;SDS011;28933;52.492;13.434;2022-10-16T15:31:14;5.28;;;1.83;;
43337;SDS011;28933;52.492;13.434;2022-10-16T15:33:40;3.40;;;1.58;;
43337;SDS011;28933;52.492;13.434;2022-10-16T15:36:07;2.35;;;1.30;;
43337;SDS011;28933;52.492;13.434;2022-10-16T15:38:33;2.65;;;1.50;;
43337;SDS011;28933;52.492;13.434;2022-10-16T15:40:58;6.53;;;2.30;;
43337;SDS011;28933;52.492;13.434;2022-10-16T15:43:24;2.78;;;1.88;;
43337;SDS011;28933;52.492;13.434;2022-10-16T15:48:31;3.15;;;1.70;;
43337;SDS011;28933;52.492;13.434;2022-10-16T15:50:58;5.53;;;1.80;;
43337;SDS011;28933;52.492;13.434;2022-10-16T15:53:24;5.20;;;1.60;;
43337;SDS011;28933;52.492;13.434;2022-10-16T15:55:50;2.80;;;1.60;;
43337;SDS011;28933;52.492;13.434;2022-10-16T15:58:16;4.00;;;1.80;;
43337;SDS011;28933;52.492;13.434;2022-10-16T16:00:42;3.35;;;2.28;;
43337;SDS011;28933;52.492;13.434;2022-10-16T16:03:08;2.63;;;1.83;;
43337;SDS011;28933;52.492;13.434;2022-10-16T16:05:37;2.88;;;1.85;;
43337;SDS011;28933;52.492;13.434;2022-10-16T16:08:04;4.18;;;2.45;;
43337;SDS011;28933;52.492;13.434;2022-10-16T16:10:29;3.35;;;2.00;;
43337;SDS011;28933;52.492;13.434;2022-10-16T16:12:58;4.38;;;2.40;;
43337;SDS011;28933;52.492;13.434;2022-10-16T16:15:24;3.80;;;2.00;;
43337;SDS011;28933;52.492;13.434;2022-10-16T16:17:50;4.88;;;2.35;;
43337;SDS011;28933;52.492;13.434;2022-10-16T16:20:15;8.63;;;2.20;;
43337;SDS011;28933;52.492;13.434;2022-10-16T16:22:44;3.63;;;1.77;;
43337;SDS011;28933;52.492;13.434;2022-10-16T16:25:09;4.82;;;3.53;;
43337;SDS011;28933;52.492;13.434;2022-10-16T16:27:36;6.07;;;3.30;;
43337;SDS011;28933;52.492;13.434;2022-10-16T16:30:03;6.18;;;2.72;;
43337;SDS011;28933;52.492;13.434;2022-10-16T16:32:32;4.82;;;2.50;;
43337;SDS011;28933;52.492;13.434;2022-10-16T16:34:58;5.18;;;3.33;;
43337;SDS011;28933;52.492;13.434;2022-10-16T16:37:24;8.02;;;2.80;;
43337;SDS011;28933;52.492;13.434;2022-10-16T16:39:49;6.88;;;3.72;;
43337;SDS011;28933;52.492;13.434;2022-10-16T16:42:16;7.53;;;3.58;;
43337;SDS011;28933;52.492;13.434;2022-10-16T16:44:42;11.13;;;3.85;;
43337;SDS011;28933;52.492;13.434;2022-10-16T16:47:09;5.57;;;2.90;;
43337;SDS011;28933;52.492;13.434;2022-10-16T16:49:34;9.25;;;3.95;;
43337;SDS011;28933;52.492;13.434;2022-10-16T16:52:00;7.47;;;4.18;;
43337;SDS011;28933;52.492;13.434;2022-10-16T16:54:25;6.57;;;3.88;;
43337;SDS011;28933;52.492;13.434;2022-10-16T16:56:51;6.60;;;4.05;;
43337;SDS011;28933;52.492;13.434;2022-10-16T16:59:18;7.22;;;4.30;;
43337;SDS011;28933;52.492;13.434;2022-10-16T17:01:45;11.15;;;5.05;;
43337;SDS011;28933;52.492;13.434;2022-10-16T17:04:12;5.53;;;3.65;;